createdAt,value
2019-01-09T00:00:44.197Z,2.95
2019-01-09T00:03:16.573Z,2.93
2019-01-09T00:05:49.203Z,2.95
2019-01-09T00:08:21.623Z,2.95
2019-01-09T00:10:53.999Z,2.95
2019-01-09T00:13:26.302Z,2.95
2019-01-09T00:15:59.471Z,2.96
2019-01-09T00:18:31.514Z,2.97
2019-01-09T00:21:03.821Z,2.99
2019-01-09T00:23:36.171Z,2.97
2019-01-09T00:26:08.488Z,2.96
2019-01-09T00:28:40.808Z,2.97
2019-01-09T00:31:13.264Z,2.97
2019-01-09T00:33:45.618Z,2.95
2019-01-09T00:36:17.926Z,2.94
2019-01-09T00:38:50.725Z,2.96
2019-01-09T00:41:23.066Z,2.94
2019-01-09T00:43:55.023Z,2.92
2019-01-09T00:46:27.677Z,2.96
2019-01-09T00:48:59.833Z,2.96
2019-01-09T00:51:31.563Z,2.94
2019-01-09T00:54:03.904Z,2.94
2019-01-09T00:56:36.198Z,2.89
2019-01-09T00:59:08.526Z,2.87
2019-01-09T01:01:41.001Z,2.85
2019-01-09T01:04:59.650Z,2.86
2019-01-09T01:08:30.163Z,2.87
2019-01-09T01:12:03.847Z,2.83
2019-01-09T01:15:33.803Z,2.77
2019-01-09T01:18:42.247Z,2.57
2019-01-09T01:21:22.667Z,2.54
2019-01-09T01:24:47.847Z,2.58
2019-01-09T01:28:38.369Z,2.56
2019-01-09T01:32:16.472Z,2.56
2019-01-09T01:35:24.422Z,2.56
2019-01-09T01:38:34.280Z,2.55
2019-01-09T01:41:41.782Z,2.55
2019-01-09T01:44:47.656Z,2.55
2019-01-09T01:48:01.564Z,2.52
2019-01-09T01:51:32.638Z,2.50
2019-01-09T01:55:11.433Z,2.46
2019-01-09T01:58:45.030Z,2.46
2019-01-09T02:02:25.615Z,2.49
2019-01-09T02:05:49.463Z,2.46
2019-01-09T02:09:26.943Z,2.43
2019-01-09T02:12:40.788Z,2.37
2019-01-09T02:16:10.403Z,2.28
2019-01-09T02:19:19.993Z,2.27
2019-01-09T02:22:32.726Z,2.23
2019-01-09T02:25:54.419Z,2.19
2019-01-09T02:29:26.424Z,2.17
2019-01-09T02:32:36.005Z,2.12
2019-01-09T02:35:08.361Z,2.01
2019-01-09T02:37:40.754Z,2.03
2019-01-09T02:40:13.394Z,2.00
2019-01-09T02:42:45.445Z,1.97
2019-01-09T02:45:17.308Z,1.99
2019-01-09T02:47:49.729Z,2.00
2019-01-09T02:50:22.095Z,1.95
2019-01-09T02:52:54.562Z,1.98
2019-01-09T02:55:27.284Z,1.98
2019-01-09T02:57:59.431Z,1.97
2019-01-09T03:00:32.271Z,1.91
2019-01-09T03:03:04.297Z,1.99
2019-01-09T03:05:36.907Z,1.98
2019-01-09T03:08:08.789Z,1.97
2019-01-09T03:10:41.432Z,2.01
2019-01-09T03:13:13.494Z,2.01
2019-01-09T03:15:45.244Z,2.00
2019-01-09T03:18:17.671Z,2.00
2019-01-09T03:20:50.049Z,2.00
2019-01-09T03:23:22.478Z,2.00
2019-01-09T03:25:54.815Z,1.95
2019-01-09T03:28:26.589Z,1.96
2019-01-09T03:30:59.108Z,1.98
2019-01-09T03:33:31.455Z,1.96
2019-01-09T03:36:04.115Z,1.93
2019-01-09T03:38:35.972Z,1.97
2019-01-09T03:41:08.312Z,1.93
2019-01-09T03:43:40.609Z,1.96
2019-01-09T03:46:13.326Z,1.96
2019-01-09T03:48:45.532Z,1.94
2019-01-09T03:51:17.657Z,1.95
2019-01-09T03:53:49.462Z,1.94
2019-01-09T03:56:21.779Z,1.93
2019-01-09T03:58:54.129Z,1.93
2019-01-09T04:01:26.441Z,1.91
2019-01-09T04:03:58.755Z,1.88
2019-01-09T04:06:31.055Z,1.89
2019-01-09T04:09:04.612Z,1.88
2019-01-09T04:11:35.406Z,1.92
2019-01-09T04:14:07.080Z,1.92
2019-01-09T04:16:39.420Z,1.93
2019-01-09T04:19:11.801Z,1.95
2019-01-09T04:21:44.457Z,1.96
2019-01-09T04:24:16.205Z,1.96
2019-01-09T04:26:48.525Z,1.98
2019-01-09T04:29:20.814Z,1.97
2019-01-09T04:31:53.324Z,1.96
2019-01-09T04:34:25.713Z,1.96
2019-01-09T04:36:58.392Z,1.98
2019-01-09T04:39:30.432Z,1.99
2019-01-09T04:42:02.871Z,1.96
2019-01-09T04:44:35.217Z,1.98
2019-01-09T04:47:07.658Z,1.98
2019-01-09T04:49:40.020Z,1.96
2019-01-09T04:52:12.374Z,1.92
2019-01-09T04:54:44.660Z,1.95
2019-01-09T04:57:17.448Z,1.96
2019-01-09T04:59:49.473Z,1.94
2019-01-09T05:02:21.779Z,1.88
2019-01-09T05:04:54.297Z,1.83
2019-01-09T05:07:26.694Z,1.73
2019-01-09T05:09:59.087Z,1.71
2019-01-09T05:12:31.511Z,1.66
2019-01-09T05:15:04.142Z,1.49
2019-01-09T05:22:01.125Z,1.59
2019-01-09T05:24:45.728Z,1.57
2019-01-09T05:27:52.016Z,1.50
2019-01-09T05:34:03.919Z,1.50
2019-01-09T05:36:45.872Z,1.46
2019-01-09T05:39:47.082Z,1.46
2019-01-09T05:42:14.629Z,1.41
2019-01-09T05:45:07.486Z,1.36
2019-01-09T05:47:45.071Z,1.39
2019-01-09T05:50:42.845Z,1.36
2019-01-09T05:53:31.700Z,1.36
2019-01-09T05:56:07.660Z,1.37
2019-01-09T05:59:00.707Z,1.37
2019-01-09T06:01:45.271Z,1.40
2019-01-09T06:04:26.762Z,1.34
2019-01-09T06:07:22.692Z,1.37
2019-01-09T06:10:02.517Z,1.36
2019-01-09T06:16:01.030Z,1.35
2019-01-09T06:18:30.478Z,1.34
2019-01-09T06:21:35.852Z,1.34
2019-01-09T06:24:17.055Z,1.37
2019-01-09T06:26:55.980Z,1.34
2019-01-09T06:29:32.271Z,1.36
2019-01-09T06:32:12.393Z,1.33
2019-01-09T06:35:06.823Z,1.33
2019-01-09T06:37:47.246Z,1.32
2019-01-09T06:40:44.502Z,1.33
2019-01-09T06:43:16.736Z,1.29
2019-01-09T06:46:12.793Z,1.28
2019-01-09T06:48:54.007Z,1.27
2019-01-09T06:51:38.942Z,1.22
2019-01-09T06:54:24.038Z,1.21
2019-01-09T06:57:03.396Z,1.19
2019-01-09T06:59:43.242Z,1.19
2019-01-09T07:02:25.760Z,1.15
2019-01-09T07:05:07.851Z,1.13
2019-01-09T07:07:43.837Z,1.13
2019-01-09T07:10:27.300Z,1.15
2019-01-09T07:13:16.908Z,1.10
2019-01-09T07:16:07.458Z,1.13
2019-01-09T07:18:46.953Z,1.13
2019-01-09T07:21:29.868Z,1.10
2019-01-09T07:24:12.411Z,1.13
2019-01-09T07:26:59.417Z,1.13
2019-01-09T07:30:00.823Z,1.14
2019-01-09T07:32:40.517Z,1.16
2019-01-09T07:35:16.726Z,1.14
2019-01-09T07:38:03.888Z,1.15
2019-01-09T07:40:48.775Z,1.15
2019-01-09T07:43:28.302Z,1.16
2019-01-09T07:46:30.499Z,1.18
2019-01-09T07:49:29.247Z,1.16
2019-01-09T07:52:09.945Z,1.15
2019-01-09T07:55:08.639Z,1.11
2019-01-09T07:58:08.936Z,1.14
2019-01-09T08:01:16.011Z,1.13
2019-01-09T08:04:12.117Z,1.15
2019-01-09T08:06:57.321Z,1.14
2019-01-09T08:09:45.174Z,1.15
2019-01-09T08:12:31.064Z,1.15
2019-01-09T08:15:09.712Z,1.18
2019-01-09T08:17:55.424Z,1.13
2019-01-09T08:20:48.592Z,1.14
2019-01-09T08:23:21.169Z,1.17
2019-01-09T08:26:04.333Z,1.19
2019-01-09T08:28:48.882Z,1.17
2019-01-09T08:31:33.595Z,1.17
2019-01-09T08:34:07.069Z,1.17
2019-01-09T08:36:50.165Z,1.20
2019-01-09T08:39:59.708Z,1.23
2019-01-09T08:42:17.098Z,1.23
2019-01-09T08:45:19.840Z,1.25
2019-01-09T08:48:00.634Z,1.24
2019-01-09T08:50:38.551Z,1.28
2019-01-09T08:53:22.222Z,1.31
2019-01-09T08:56:16.369Z,1.34
2019-01-09T08:58:59.433Z,1.38
2019-01-09T09:01:57.389Z,1.39
2019-01-09T09:04:39.038Z,1.40
2019-01-09T09:07:17.174Z,1.44
2019-01-09T09:10:09.698Z,1.42
2019-01-09T09:12:48.135Z,1.47
2019-01-09T09:15:25.352Z,1.45
2019-01-09T09:18:15.104Z,1.49
2019-01-09T09:20:44.268Z,1.49
2019-01-09T09:23:33.570Z,1.45
2019-01-09T09:26:17.002Z,1.48
2019-01-09T09:29:27.397Z,1.52
2019-01-09T09:32:08.343Z,1.53
2019-01-09T09:35:08.651Z,1.52
2019-01-09T09:38:01.428Z,1.58
2019-01-09T09:40:48.434Z,1.58
2019-01-09T09:43:42.978Z,1.60
2019-01-09T09:46:25.117Z,1.58
2019-01-09T09:49:14.385Z,1.65
2019-01-09T09:52:20.462Z,1.72
2019-01-09T09:55:12.621Z,1.72
2019-01-09T09:57:51.411Z,1.72
2019-01-09T10:00:37.651Z,1.71
2019-01-09T10:03:22.794Z,1.76
2019-01-09T10:06:23.839Z,1.73
2019-01-09T10:09:31.468Z,1.80
2019-01-09T10:12:13.196Z,1.87
2019-01-09T10:15:01.810Z,1.85
2019-01-09T10:17:39.410Z,1.83
2019-01-09T10:20:34.487Z,1.82
2019-01-09T10:23:20.599Z,1.89
2019-01-09T10:26:08.688Z,1.81
2019-01-09T10:29:15.637Z,1.82
2019-01-09T10:31:55.709Z,1.76
2019-01-09T10:34:38.622Z,1.71
2019-01-09T10:37:30.508Z,1.72
2019-01-09T10:40:15.742Z,1.75
2019-01-09T10:43:30.367Z,1.72
2019-01-09T10:46:31.404Z,1.74
2019-01-09T10:49:04.179Z,1.72
2019-01-09T10:51:46.178Z,1.73
2019-01-09T10:54:37.389Z,1.71
2019-01-09T10:57:28.020Z,1.80
2019-01-09T11:00:04.257Z,1.79
2019-01-09T11:02:49.413Z,1.88
2019-01-09T11:05:39.357Z,1.98
2019-01-09T11:08:47.873Z,1.96
2019-01-09T11:11:25.058Z,1.97
2019-01-09T11:14:10.947Z,2.04
2019-01-09T11:16:56.528Z,2.03
2019-01-09T11:19:42.481Z,2.04
2019-01-09T11:22:31.346Z,2.08
2019-01-09T11:25:24.227Z,2.11
2019-01-09T11:28:17.078Z,2.12
2019-01-09T11:31:13.080Z,2.01
2019-01-09T11:33:50.849Z,2.13
2019-01-09T11:36:30.009Z,2.11
2019-01-09T11:39:32.414Z,2.12
2019-01-09T11:42:10.606Z,2.12
2019-01-09T11:44:50.472Z,2.10
2019-01-09T11:47:32.561Z,2.11
2019-01-09T11:50:12.744Z,2.09
2019-01-09T11:52:56.131Z,2.18
2019-01-09T11:55:47.754Z,2.23
2019-01-09T11:58:32.635Z,2.22
2019-01-09T12:01:24.508Z,2.27
2019-01-09T12:04:11.159Z,2.31
2019-01-09T12:07:06.470Z,2.33
2019-01-09T12:09:56.282Z,2.38
2019-01-09T12:12:36.508Z,2.40
2019-01-09T12:15:23.759Z,2.38
2019-01-09T12:18:14.512Z,2.41
2019-01-09T12:21:36.733Z,2.44
2019-01-09T12:24:47.565Z,2.44
2019-01-09T12:27:44.218Z,2.45
2019-01-09T12:30:37.483Z,2.44
2019-01-09T12:33:24.261Z,2.43
2019-01-09T12:36:23.395Z,2.39
2019-01-09T12:39:13.369Z,2.34
2019-01-09T12:42:02.408Z,2.23
2019-01-09T12:44:36.254Z,2.22
2019-01-09T12:47:25.113Z,2.11
2019-01-09T12:50:08.648Z,2.07
2019-01-09T12:52:55.668Z,2.07
2019-01-09T12:55:45.549Z,2.09
2019-01-09T12:58:28.751Z,2.04
2019-01-09T13:01:11.746Z,2.01
2019-01-09T13:03:57.249Z,1.94
2019-01-09T13:06:38.609Z,1.90
2019-01-09T13:09:21.948Z,1.84
2019-01-09T13:12:04.401Z,1.82
2019-01-09T13:14:46.233Z,1.74
2019-01-09T13:17:39.261Z,1.71
2019-01-09T13:20:40.381Z,1.68
2019-01-09T13:23:24.423Z,1.61
2019-01-09T13:26:02.217Z,1.56
2019-01-09T13:28:44.575Z,1.50
2019-01-09T13:31:28.615Z,1.54
2019-01-09T13:34:33.128Z,1.47
2019-01-09T13:37:09.568Z,1.43
2019-01-09T13:39:55.603Z,1.40
2019-01-09T13:42:41.244Z,1.38
2019-01-09T13:45:29.747Z,1.27
2019-01-09T13:48:17.072Z,1.27
2019-01-09T13:51:21.138Z,1.24
2019-01-09T13:54:05.809Z,1.25
2019-01-09T13:56:56.019Z,1.25
2019-01-09T13:59:46.104Z,1.14
2019-01-09T14:02:48.187Z,1.12
2019-01-09T14:05:31.094Z,1.14
2019-01-09T14:08:24.983Z,1.12
2019-01-09T14:11:12.911Z,1.10
2019-01-09T14:14:14.644Z,1.10
2019-01-09T14:17:06.146Z,1.04
2019-01-09T14:19:48.866Z,1.07
2019-01-09T14:22:32.893Z,0.97
2019-01-09T14:25:21.478Z,1.00
2019-01-09T14:28:16.892Z,0.97
2019-01-09T14:30:59.264Z,1.02
2019-01-09T14:33:46.546Z,0.96
2019-01-09T14:36:19.641Z,0.95
2019-01-09T14:39:11.054Z,0.96
2019-01-09T14:42:08.755Z,0.95
2019-01-09T14:45:02.502Z,0.95
2019-01-09T14:47:47.149Z,0.90
2019-01-09T14:50:36.125Z,0.90
2019-01-09T14:53:12.920Z,0.89
2019-01-09T14:56:07.084Z,0.92
2019-01-09T14:58:53.857Z,0.90
2019-01-09T15:01:44.446Z,0.90
2019-01-09T15:04:31.287Z,0.91
2019-01-09T15:07:15.548Z,0.89
2019-01-09T15:09:56.827Z,0.90
2019-01-09T15:12:41.461Z,0.86
2019-01-09T15:15:20.136Z,0.90
2019-01-09T15:18:10.347Z,0.88
2019-01-09T15:24:11.035Z,0.85
2019-01-09T15:26:50.784Z,0.85
2019-01-09T15:29:41.075Z,0.83
2019-01-09T15:32:18.706Z,0.81
2019-01-09T15:35:25.281Z,0.79
2019-01-09T15:38:05.851Z,0.79
2019-01-09T15:40:48.821Z,0.76
2019-01-09T15:43:29.265Z,0.77
2019-01-09T15:46:20.035Z,0.75
2019-01-09T15:49:00.058Z,0.72
2019-01-09T15:51:53.076Z,0.70
2019-01-09T15:54:28.131Z,0.70
2019-01-09T15:57:05.980Z,0.70
2019-01-09T15:59:54.685Z,0.74
2019-01-09T16:02:45.133Z,0.63
2019-01-09T16:05:42.937Z,0.68
2019-01-09T16:08:25.049Z,0.65
2019-01-09T16:11:12.020Z,0.65
2019-01-09T16:13:54.976Z,0.65
2019-01-09T16:16:34.130Z,0.62
2019-01-09T16:19:11.535Z,0.62
2019-01-09T16:22:10.431Z,0.59
2019-01-09T16:24:52.698Z,0.60
2019-01-09T16:27:29.477Z,0.59
2019-01-09T16:30:34.030Z,0.61
2019-01-09T16:33:11.619Z,0.57
2019-01-09T16:35:59.473Z,0.57
2019-01-09T16:39:07.508Z,0.61
2019-01-09T16:41:45.181Z,0.58
2019-01-09T16:44:28.457Z,0.57
2019-01-09T16:47:08.589Z,0.53
2019-01-09T16:49:58.083Z,0.57
2019-01-09T16:52:42.518Z,0.57
2019-01-09T16:55:30.420Z,0.58
2019-01-09T16:58:32.773Z,0.58
2019-01-09T17:01:17.488Z,0.56
2019-01-09T17:04:09.193Z,0.55
2019-01-09T17:07:04.217Z,0.54
2019-01-09T17:10:31.881Z,0.56
2019-01-09T17:12:57.810Z,0.56
2019-01-09T17:15:59.936Z,0.53
2019-01-09T17:18:56.119Z,0.54
2019-01-09T17:21:45.590Z,0.50
2019-01-09T17:24:37.698Z,0.49
2019-01-09T17:30:54.663Z,0.48
2019-01-09T17:33:47.391Z,0.52
2019-01-09T17:37:04.971Z,0.50
2019-01-09T17:40:03.016Z,0.51
2019-01-09T17:43:16.962Z,0.49
2019-01-09T17:46:05.118Z,0.49
2019-01-09T17:49:00.811Z,0.50
2019-01-09T17:52:01.858Z,0.50
2019-01-09T17:55:06.800Z,0.50
2019-01-09T17:58:23.648Z,0.51
2019-01-09T18:01:01.508Z,0.52
2019-01-09T18:03:41.299Z,0.62
2019-01-09T18:06:19.703Z,0.56
2019-01-09T18:09:06.183Z,0.59
2019-01-09T18:12:03.159Z,0.62
2019-01-09T18:17:50.372Z,0.63
2019-01-09T18:20:37.165Z,0.61
2019-01-09T18:23:18.054Z,0.61
2019-01-09T18:25:56.405Z,0.61
2019-01-09T18:28:43.404Z,0.59
2019-01-09T18:32:28.987Z,0.64
2019-01-09T18:35:51.133Z,0.56
2019-01-09T18:39:25.959Z,0.57
2019-01-09T18:43:30.170Z,0.59
2019-01-09T18:47:17.296Z,0.61
2019-01-09T18:51:18.348Z,0.58
2019-01-09T18:54:02.723Z,0.57
2019-01-09T18:56:42.366Z,0.56
2019-01-09T18:59:17.511Z,0.54
2019-01-09T19:01:54.129Z,0.54
2019-01-09T19:04:30.323Z,0.57
2019-01-09T19:07:08.231Z,0.52
2019-01-09T19:09:46.453Z,0.50
2019-01-09T19:12:23.821Z,0.55
2019-01-09T19:15:19.056Z,0.55
2019-01-09T19:18:03.538Z,0.55
2019-01-09T19:21:04.595Z,0.55
2019-01-09T19:23:51.269Z,0.55
2019-01-09T19:26:43.583Z,0.53
2019-01-09T19:29:26.811Z,0.54
2019-01-09T19:32:33.033Z,0.56
2019-01-09T19:35:13.949Z,0.55
2019-01-09T19:38:00.412Z,0.54
2019-01-09T19:40:45.389Z,0.53
2019-01-09T19:43:23.817Z,0.54
2019-01-09T19:46:10.239Z,0.53
2019-01-09T19:49:07.818Z,0.53
2019-01-09T19:51:52.771Z,0.52
2019-01-09T19:54:47.093Z,0.54
2019-01-09T19:57:34.576Z,0.54
2019-01-09T20:00:20.026Z,0.52
2019-01-09T20:03:02.721Z,0.50
2019-01-09T20:05:57.908Z,0.51
2019-01-09T20:08:41.816Z,0.49
2019-01-09T20:11:39.129Z,0.50
2019-01-09T20:14:22.202Z,0.46
2019-01-09T20:17:26.508Z,0.46
2019-01-09T20:20:14.174Z,0.51
2019-01-09T20:23:04.732Z,0.50
2019-01-09T20:26:16.597Z,0.51
2019-01-09T20:29:03.892Z,0.48
2019-01-09T20:32:02.428Z,0.53
2019-01-09T20:35:08.905Z,0.52
2019-01-09T20:37:52.869Z,0.55
2019-01-09T20:40:47.786Z,0.52
2019-01-09T20:43:54.483Z,0.54
2019-01-09T20:46:49.503Z,0.50
2019-01-09T20:49:34.526Z,0.52
2019-01-09T20:52:17.773Z,0.52
2019-01-09T20:55:05.326Z,0.51
2019-01-09T20:57:50.338Z,0.55
2019-01-09T21:00:33.005Z,0.54
2019-01-09T21:03:35.467Z,0.54
2019-01-09T21:06:27.091Z,0.54
2019-01-09T21:09:00.157Z,0.53
2019-01-09T21:11:47.864Z,0.53
2019-01-09T21:14:25.814Z,0.54
2019-01-09T21:17:39.455Z,0.54
2019-01-09T21:20:33.284Z,0.54
2019-01-09T21:23:11.436Z,0.55
2019-01-09T21:26:04.513Z,0.55
2019-01-09T21:28:48.290Z,0.56
2019-01-09T21:31:40.276Z,0.56
2019-01-09T21:34:28.414Z,0.55
2019-01-09T21:37:02.429Z,0.57
2019-01-09T21:39:47.189Z,0.56
2019-01-09T21:42:54.930Z,0.57
2019-01-09T21:45:40.469Z,0.54
2019-01-09T21:48:23.982Z,0.53
2019-01-09T21:51:06.723Z,0.53
2019-01-09T21:53:50.454Z,0.58
2019-01-09T21:56:31.821Z,0.54
2019-01-09T21:59:15.837Z,0.55
2019-01-09T22:01:56.763Z,0.57
2019-01-09T22:04:48.165Z,0.55
2019-01-09T22:07:36.443Z,0.54
2019-01-09T22:10:19.931Z,0.55
2019-01-09T22:13:12.377Z,0.55
2019-01-09T22:16:04.751Z,0.49
2019-01-09T22:18:45.420Z,0.52
2019-01-09T22:21:24.425Z,0.50
2019-01-09T22:24:05.599Z,0.49
2019-01-09T22:26:39.869Z,0.54
2019-01-09T22:29:30.316Z,0.49
2019-01-09T22:32:09.838Z,0.52
2019-01-09T22:34:59.945Z,0.50
2019-01-09T22:37:46.065Z,0.51
2019-01-09T22:40:49.442Z,0.52
2019-01-09T22:43:32.102Z,0.51
2019-01-09T22:46:10.162Z,0.52
2019-01-09T22:48:54.609Z,0.50
2019-01-09T22:51:51.975Z,0.48
2019-01-09T22:54:44.200Z,0.49
2019-01-09T22:57:27.145Z,0.52
2019-01-09T23:01:00.530Z,0.50
2019-01-09T23:03:49.435Z,0.50
2019-01-09T23:06:32.013Z,0.48
2019-01-09T23:09:14.316Z,0.49
2019-01-09T23:11:55.705Z,0.48
2019-01-09T23:14:36.938Z,0.50
2019-01-09T23:17:30.565Z,0.48
2019-01-09T23:20:11.113Z,0.48
2019-01-09T23:22:48.211Z,0.49
2019-01-09T23:25:29.325Z,0.49
2019-01-09T23:28:06.475Z,0.49
2019-01-09T23:30:50.564Z,0.49
2019-01-09T23:33:31.350Z,0.47
2019-01-09T23:36:13.182Z,0.52
2019-01-09T23:39:06.983Z,0.50
2019-01-09T23:41:57.157Z,0.48
2019-01-09T23:44:42.573Z,0.49
2019-01-09T23:47:24.739Z,0.50
2019-01-09T23:50:19.753Z,0.48
2019-01-09T23:53:03.496Z,0.51
2019-01-09T23:55:51.840Z,0.50
2019-01-09T23:58:27.899Z,0.50
